createdAt,value
2023-02-14T00:01:12.498Z,28.67
2023-02-14T00:04:17.301Z,34.35
2023-02-14T00:07:19.258Z,23.33
2023-02-14T00:10:21.383Z,28.55
2023-02-14T00:13:23.258Z,31.77
2023-02-14T00:16:25.592Z,26.98
2023-02-14T00:19:30.350Z,55.15
2023-02-14T00:22:32.300Z,27.70
2023-02-14T00:25:34.985Z,32.42
2023-02-14T00:28:36.860Z,31.80
2023-02-14T00:31:41.773Z,24.65
2023-02-14T00:34:44.314Z,32.08
2023-02-14T00:37:47.656Z,31.55
2023-02-14T00:40:49.527Z,30.63
2023-02-14T00:46:55.337Z,30.30
2023-02-14T00:53:04.905Z,38.38
2023-02-14T00:56:07.229Z,27.63
2023-02-14T00:59:12.271Z,21.73
2023-02-14T01:02:14.359Z,26.40
2023-02-14T01:05:16.401Z,21.85
2023-02-14T01:08:19.108Z,23.33
2023-02-14T01:11:30.418Z,31.30
2023-02-14T01:14:32.641Z,22.48
2023-02-14T01:17:34.523Z,23.13
2023-02-14T01:20:36.508Z,22.98
2023-02-14T01:23:38.489Z,27.77
2023-02-14T01:26:40.510Z,24.38
2023-02-14T01:29:44.465Z,49.75
2023-02-14T01:32:46.845Z,22.00
2023-02-14T01:35:48.834Z,25.20
2023-02-14T01:38:56.756Z,23.00
2023-02-14T01:41:58.686Z,25.05
2023-02-14T01:45:20.451Z,22.60
2023-02-14T01:48:23.488Z,30.52
2023-02-14T01:51:26.393Z,41.15
2023-02-14T01:54:30.913Z,20.08
2023-02-14T01:57:43.214Z,26.08
2023-02-14T02:00:45.312Z,40.00
2023-02-14T02:03:55.188Z,31.10
2023-02-14T02:07:04.044Z,19.10
2023-02-14T02:10:07.885Z,26.15
2023-02-14T02:13:19.276Z,30.52
2023-02-14T02:16:42.186Z,30.38
2023-02-14T02:19:49.991Z,41.17
2023-02-14T02:23:40.574Z,30.48
2023-02-14T02:27:17.705Z,41.10
2023-02-14T02:30:19.681Z,37.03
2023-02-14T02:33:30.742Z,18.95
2023-02-14T02:36:55.385Z,18.42
2023-02-14T02:40:21.471Z,34.17
2023-02-14T02:43:29.264Z,19.88
2023-02-14T02:46:40.951Z,29.10
2023-02-14T02:50:14.545Z,32.28
2023-02-14T02:54:04.648Z,21.90
2023-02-14T02:57:12.272Z,37.03
2023-02-14T03:00:16.209Z,21.60
2023-02-14T03:03:21.785Z,18.80
2023-02-14T03:06:23.744Z,31.05
2023-02-14T03:09:28.739Z,18.92
2023-02-14T03:12:33.676Z,40.75
2023-02-14T03:15:54.414Z,31.98
2023-02-14T03:19:25.595Z,16.77
2023-02-14T03:22:46.499Z,22.50
2023-02-14T03:26:06.225Z,17.27
2023-02-14T03:29:29.621Z,17.13
2023-02-14T03:32:40.327Z,19.02
2023-02-14T03:35:57.444Z,25.73
2023-02-14T03:39:09.461Z,24.67
2023-02-14T03:42:21.401Z,26.65
2023-02-14T03:45:55.436Z,20.08
2023-02-14T03:49:02.479Z,22.88
2023-02-14T03:52:05.802Z,18.92
2023-02-14T03:55:09.493Z,24.15
2023-02-14T03:58:19.431Z,18.48
2023-02-14T04:01:31.263Z,19.38
2023-02-14T04:04:37.844Z,22.33
2023-02-14T04:07:54.087Z,29.58
2023-02-14T04:11:00.147Z,23.30
2023-02-14T04:14:03.102Z,21.38
2023-02-14T04:17:05.649Z,22.52
2023-02-14T04:20:07.716Z,26.60
2023-02-14T04:23:09.594Z,20.30
2023-02-14T04:26:11.771Z,18.40
2023-02-14T04:29:15.982Z,17.83
2023-02-14T04:32:21.765Z,16.60
2023-02-14T04:35:23.748Z,15.93
2023-02-14T04:38:25.722Z,16.42
2023-02-14T04:41:30.347Z,15.85
2023-02-14T04:44:32.452Z,17.60
2023-02-14T04:47:34.380Z,19.25
2023-02-14T04:50:36.343Z,18.83
2023-02-14T04:53:40.641Z,19.58
2023-02-14T04:56:42.748Z,18.70
2023-02-14T04:59:44.722Z,19.70
2023-02-14T05:02:47.130Z,19.08
2023-02-14T05:05:49.099Z,19.20
2023-02-14T05:08:51.061Z,22.55
2023-02-14T05:11:53.077Z,16.40
2023-02-14T05:14:55.147Z,20.17
2023-02-14T05:17:57.222Z,21.20
2023-02-14T05:20:59.325Z,26.60
2023-02-14T05:24:02.018Z,28.70
2023-02-14T05:27:04.092Z,30.83
2023-02-14T05:30:06.724Z,27.65
2023-02-14T05:33:08.842Z,28.20
2023-02-14T05:36:11.029Z,32.92
2023-02-14T05:39:13.059Z,32.38
2023-02-14T05:42:14.945Z,28.27
2023-02-14T05:45:16.929Z,31.15
2023-02-14T05:48:18.885Z,32.03
2023-02-14T05:51:20.763Z,32.72
2023-02-14T05:54:22.707Z,31.33
2023-02-14T05:57:25.439Z,34.03
2023-02-14T06:00:27.647Z,31.33
2023-02-14T06:03:29.612Z,30.95
2023-02-14T06:06:32.529Z,31.25
2023-02-14T06:09:34.584Z,33.85
2023-02-14T06:12:36.493Z,32.80
2023-02-14T06:15:38.718Z,34.17
2023-02-14T06:18:40.757Z,33.45
2023-02-14T06:21:42.749Z,36.92
2023-02-14T06:24:44.728Z,36.05
2023-02-14T06:27:49.113Z,35.25
2023-02-14T06:30:51.719Z,38.22
2023-02-14T06:33:54.381Z,33.53
2023-02-14T06:36:56.353Z,35.35
2023-02-14T06:39:58.379Z,34.78
2023-02-14T06:43:00.399Z,39.80
2023-02-14T06:46:03.098Z,39.88
2023-02-14T06:49:05.266Z,34.50
2023-02-14T06:52:07.568Z,37.80
2023-02-14T06:55:11.136Z,37.20
2023-02-14T06:58:13.447Z,39.63
2023-02-14T07:01:15.463Z,35.55
2023-02-14T07:04:17.477Z,34.05
2023-02-14T07:07:19.586Z,39.30
2023-02-14T07:10:21.574Z,33.70
2023-02-14T07:13:24.603Z,31.08
2023-02-14T07:16:26.681Z,34.63
2023-02-14T07:19:28.978Z,32.53
2023-02-14T07:22:30.920Z,35.72
2023-02-14T07:25:32.942Z,32.17
2023-02-14T07:28:34.942Z,34.03
2023-02-14T07:31:37.002Z,34.47
2023-02-14T07:34:39.140Z,33.70
2023-02-14T07:37:41.124Z,32.90
2023-02-14T07:40:43.051Z,35.70
2023-02-14T07:43:45.049Z,34.03
2023-02-14T07:46:46.963Z,33.83
2023-02-14T07:49:49.120Z,32.05
2023-02-14T07:52:51.141Z,34.25
2023-02-14T07:55:55.885Z,33.97
2023-02-14T07:58:57.896Z,35.17
2023-02-14T08:02:00.255Z,31.15
2023-02-14T08:05:02.471Z,37.90
2023-02-14T08:08:04.415Z,33.58
2023-02-14T08:11:06.466Z,36.97
2023-02-14T08:14:08.531Z,33.72
2023-02-14T08:17:11.474Z,32.58
2023-02-14T08:20:13.588Z,33.67
2023-02-14T08:23:16.624Z,32.17
2023-02-14T08:26:18.617Z,34.05
2023-02-14T08:29:20.882Z,30.15
2023-02-14T08:32:23.052Z,33.55
2023-02-14T08:35:26.191Z,35.53
2023-02-14T08:41:48.729Z,34.20
2023-02-14T08:44:50.698Z,30.42
2023-02-14T08:47:53.309Z,35.17
2023-02-14T08:50:55.296Z,37.33
2023-02-14T08:53:57.274Z,34.55
2023-02-14T08:56:59.281Z,36.70
2023-02-14T09:00:01.233Z,33.45
2023-02-14T09:03:03.293Z,32.70
2023-02-14T09:06:06.757Z,38.30
2023-02-14T09:09:08.754Z,32.17
2023-02-14T09:12:11.062Z,32.08
2023-02-14T09:15:13.703Z,33.83
2023-02-14T09:18:15.742Z,34.67
2023-02-14T09:21:23.494Z,34.20
2023-02-14T09:24:25.712Z,36.72
2023-02-14T09:27:28.707Z,33.80
2023-02-14T09:30:30.844Z,34.42
2023-02-14T09:33:32.817Z,33.03
2023-02-14T09:36:34.922Z,33.70
2023-02-14T09:39:37.613Z,34.28
2023-02-14T09:42:49.339Z,31.80
2023-02-14T09:45:55.240Z,35.03
2023-02-14T09:48:58.711Z,33.50
2023-02-14T09:52:03.082Z,28.58
2023-02-14T09:55:14.500Z,33.55
2023-02-14T09:58:27.950Z,33.45
2023-02-14T10:01:34.862Z,34.20
2023-02-14T10:04:41.679Z,33.42
2023-02-14T10:07:57.780Z,32.95
2023-02-14T10:11:08.689Z,32.78
2023-02-14T10:14:20.944Z,36.00
2023-02-14T10:17:36.232Z,33.00
2023-02-14T10:24:14.456Z,34.47
2023-02-14T10:27:22.178Z,35.38
2023-02-14T10:30:24.775Z,32.90
2023-02-14T10:33:31.627Z,33.80
2023-02-14T10:36:56.051Z,32.95
2023-02-14T10:40:23.270Z,31.65
2023-02-14T10:47:21.014Z,35.05
2023-02-14T10:50:51.096Z,29.92
2023-02-14T10:54:15.273Z,35.72
2023-02-14T10:57:29.511Z,31.42
2023-02-14T11:00:35.715Z,32.67
2023-02-14T11:03:41.605Z,31.00
2023-02-14T11:06:45.728Z,33.28
2023-02-14T11:09:47.850Z,32.20
2023-02-14T11:12:49.923Z,31.88
2023-02-14T11:15:51.876Z,32.90
2023-02-14T11:19:09.735Z,32.28
2023-02-14T11:22:28.360Z,32.53
2023-02-14T11:25:31.851Z,32.88
2023-02-14T11:28:35.069Z,31.50
2023-02-14T11:31:38.658Z,36.70
2023-02-14T11:35:04.377Z,34.83
2023-02-14T11:38:26.944Z,33.92
2023-02-14T11:41:51.182Z,30.38
2023-02-14T11:44:56.601Z,31.77
2023-02-14T11:48:10.191Z,33.60
2023-02-14T12:03:23.486Z,28.58
2023-02-14T12:06:31.511Z,32.13
2023-02-14T12:09:33.341Z,31.27
2023-02-14T12:12:36.070Z,33.40
2023-02-14T12:15:39.730Z,31.02
2023-02-14T12:19:02.751Z,30.95
2023-02-14T12:22:06.633Z,29.13
2023-02-14T12:25:17.770Z,31.45
2023-02-14T12:28:28.292Z,29.08
2023-02-14T12:31:30.630Z,29.98
2023-02-14T12:34:32.678Z,31.48
2023-02-14T12:37:48.746Z,32.97
2023-02-14T12:41:09.285Z,30.05
2023-02-14T12:44:31.444Z,34.92
2023-02-14T12:47:55.376Z,32.78
2023-02-14T12:51:14.338Z,27.95
2023-02-14T12:54:41.037Z,29.40
2023-02-14T12:58:00.147Z,27.58
2023-02-14T13:01:36.754Z,31.98
2023-02-14T13:04:54.986Z,30.15
2023-02-14T13:08:13.343Z,28.38
2023-02-14T13:11:39.812Z,27.83
2023-02-14T13:15:12.012Z,30.77
2023-02-14T13:18:22.955Z,30.95
2023-02-14T13:21:29.721Z,34.60
2023-02-14T13:24:53.498Z,31.27
2023-02-14T13:27:55.392Z,32.13
2023-02-14T13:30:59.090Z,31.30
2023-02-14T13:34:08.545Z,30.75
2023-02-14T13:37:13.597Z,33.05
2023-02-14T13:40:22.087Z,32.13
2023-02-14T13:43:45.272Z,32.55
2023-02-14T13:46:49.697Z,31.63
2023-02-14T13:50:01.561Z,29.35
2023-02-14T13:53:03.516Z,30.00
2023-02-14T13:56:33.695Z,30.15
2023-02-14T13:59:35.968Z,33.10
2023-02-14T14:02:54.774Z,30.17
2023-02-14T14:06:06.005Z,28.90
2023-02-14T14:09:10.778Z,31.73
2023-02-14T14:12:27.903Z,31.85
2023-02-14T14:15:29.992Z,31.48
2023-02-14T14:18:37.295Z,34.00
2023-02-14T14:21:43.630Z,31.45
2023-02-14T14:24:57.463Z,31.25
2023-02-14T14:28:00.212Z,32.63
2023-02-14T14:31:02.184Z,31.27
2023-02-14T14:34:04.090Z,31.77
2023-02-14T14:37:18.186Z,32.40
2023-02-14T14:40:26.396Z,31.20
2023-02-14T14:43:34.829Z,31.45
2023-02-14T14:46:37.420Z,33.25
2023-02-14T14:49:39.342Z,30.92
2023-02-14T14:52:47.614Z,32.70
2023-02-14T14:55:52.594Z,31.10
2023-02-14T14:58:58.286Z,31.17
2023-02-14T15:02:00.248Z,32.13
2023-02-14T15:05:28.554Z,31.80
2023-02-14T15:08:31.917Z,31.25
2023-02-14T15:11:35.041Z,33.25
2023-02-14T15:14:41.243Z,33.20
2023-02-14T15:17:45.011Z,33.58
2023-02-14T15:20:51.137Z,33.33
2023-02-14T15:23:53.742Z,31.58
2023-02-14T15:26:59.639Z,31.42
2023-02-14T15:30:23.508Z,33.22
2023-02-14T15:33:26.053Z,34.40
2023-02-14T15:36:28.845Z,32.95
2023-02-14T15:39:49.400Z,30.55
2023-02-14T15:42:52.985Z,34.08
2023-02-14T15:45:59.871Z,30.92
2023-02-14T15:49:09.068Z,34.58
2023-02-14T15:52:13.211Z,34.15
2023-02-14T15:55:19.857Z,37.08
2023-02-14T15:58:26.163Z,35.67
2023-02-14T16:01:29.327Z,33.38
2023-02-14T16:04:34.060Z,35.72
2023-02-14T16:07:35.943Z,37.50
2023-02-14T16:10:38.967Z,33.65
2023-02-14T16:17:05.513Z,32.10
2023-02-14T16:20:23.622Z,33.00
2023-02-14T16:23:28.579Z,36.80
2023-02-14T16:26:36.765Z,36.45
2023-02-14T16:29:38.693Z,35.42
2023-02-14T16:32:40.720Z,32.25
2023-02-14T16:35:44.015Z,39.17
2023-02-14T16:38:46.306Z,35.85
2023-02-14T16:41:48.954Z,36.03
2023-02-14T16:44:51.213Z,38.42
2023-02-14T16:47:53.079Z,35.28
2023-02-14T16:51:03.397Z,36.42
2023-02-14T16:54:12.667Z,33.00
2023-02-14T16:57:27.669Z,38.88
2023-02-14T17:00:30.108Z,38.13
2023-02-14T17:03:39.534Z,37.25
2023-02-14T17:06:50.928Z,37.85
2023-02-14T17:10:04.925Z,45.15
2023-02-14T17:13:08.053Z,46.08
2023-02-14T17:16:11.253Z,42.80
2023-02-14T17:19:13.574Z,34.95
2023-02-14T17:22:16.391Z,36.72
2023-02-14T17:25:18.374Z,39.72
2023-02-14T17:28:20.272Z,35.28
2023-02-14T17:31:22.677Z,38.85
2023-02-14T17:34:31.658Z,33.58
2023-02-14T17:37:33.731Z,39.60
2023-02-14T17:40:35.701Z,40.40
2023-02-14T17:43:39.845Z,36.20
2023-02-14T17:46:41.971Z,34.15
2023-02-14T17:49:47.591Z,36.92
2023-02-14T17:52:57.238Z,38.53
2023-02-14T17:56:09.169Z,36.95
2023-02-14T18:02:18.008Z,39.03
2023-02-14T18:05:20.008Z,37.28
2023-02-14T18:08:22.024Z,39.72
2023-02-14T18:11:26.580Z,42.22
2023-02-14T18:14:28.575Z,44.30
2023-02-14T18:17:30.380Z,44.72
2023-02-14T18:20:39.908Z,45.28
2023-02-14T18:23:49.683Z,46.13
2023-02-14T18:26:51.909Z,49.55
2023-02-14T18:29:54.221Z,54.97
2023-02-14T18:32:57.439Z,49.78
2023-02-14T18:36:06.508Z,54.53
2023-02-14T18:39:09.580Z,46.13
2023-02-14T18:42:12.293Z,38.17
2023-02-14T18:45:14.612Z,50.75
2023-02-14T18:48:16.845Z,44.50
2023-02-14T18:51:23.440Z,44.83
2023-02-14T18:54:25.600Z,46.40
2023-02-14T18:57:31.676Z,49.63
2023-02-14T19:00:33.784Z,43.72
2023-02-14T19:03:46.190Z,47.38
2023-02-14T19:06:48.851Z,47.13
2023-02-14T19:09:50.985Z,42.95
2023-02-14T19:12:53.500Z,50.63
2023-02-14T19:15:56.416Z,49.50
2023-02-14T19:18:58.974Z,45.55
2023-02-14T19:22:01.555Z,47.40
2023-02-14T19:25:05.462Z,47.70
2023-02-14T19:28:07.433Z,48.70
2023-02-14T19:31:10.418Z,58.00
2023-02-14T19:37:24.234Z,53.45
2023-02-14T19:40:26.319Z,53.50
2023-02-14T19:43:28.692Z,51.83
2023-02-14T19:46:32.397Z,59.67
2023-02-14T19:49:34.503Z,59.78
2023-02-14T19:52:36.521Z,58.05
2023-02-14T19:55:40.473Z,55.50
2023-02-14T19:58:44.822Z,56.78
2023-02-14T20:01:54.757Z,62.17
2023-02-14T20:04:57.394Z,58.50
2023-02-14T20:07:59.439Z,59.53
2023-02-14T20:11:01.915Z,57.13
2023-02-14T20:14:04.881Z,61.05
2023-02-14T20:17:06.935Z,63.17
2023-02-14T20:20:15.093Z,66.88
2023-02-14T20:23:17.104Z,66.88
2023-02-14T20:26:19.427Z,64.20
2023-02-14T20:29:23.735Z,61.33
2023-02-14T20:32:25.940Z,60.80
2023-02-14T20:35:28.275Z,67.93
2023-02-14T20:38:30.460Z,63.10
2023-02-14T20:41:34.054Z,65.30
2023-02-14T20:44:36.238Z,60.33
2023-02-14T20:47:38.691Z,58.45
2023-02-14T20:50:41.681Z,61.50
2023-02-14T20:56:54.181Z,61.65
2023-02-14T20:59:57.454Z,58.58
2023-02-14T21:02:59.502Z,54.38
2023-02-14T21:06:02.453Z,60.88
2023-02-14T21:09:04.598Z,73.45
2023-02-14T21:12:07.493Z,75.95
2023-02-14T21:15:09.919Z,71.70
2023-02-14T21:18:11.990Z,76.03
2023-02-14T21:21:17.971Z,58.35
2023-02-14T21:24:22.493Z,62.85
2023-02-14T21:27:25.558Z,54.35
2023-02-14T21:30:27.551Z,67.85
2023-02-14T21:33:29.689Z,61.38
2023-02-14T21:36:33.262Z,53.05
2023-02-14T21:39:35.259Z,46.22
2023-02-14T21:42:37.316Z,52.78
2023-02-14T21:45:39.398Z,41.40
2023-02-14T21:48:42.558Z,48.80
2023-02-14T21:51:44.993Z,46.88
2023-02-14T21:54:47.521Z,65.10
2023-02-14T21:57:49.479Z,47.67
2023-02-14T22:00:51.483Z,47.63
2023-02-14T22:03:54.346Z,55.17
2023-02-14T22:06:56.320Z,54.55
2023-02-14T22:09:58.288Z,47.70
2023-02-14T22:13:01.638Z,60.20
2023-02-14T22:16:05.808Z,53.22
2023-02-14T22:19:12.353Z,63.03
2023-02-14T22:22:14.295Z,66.75
2023-02-14T22:25:16.494Z,52.00
2023-02-14T22:28:18.401Z,41.25
2023-02-14T22:31:20.995Z,46.50
2023-02-14T22:34:23.022Z,64.57
2023-02-14T22:37:25.022Z,39.40
2023-02-14T22:40:27.048Z,58.63
2023-02-14T22:43:29.069Z,63.40
2023-02-14T22:46:31.156Z,54.53
2023-02-14T22:49:33.276Z,43.72
2023-02-14T22:52:35.709Z,52.90
2023-02-14T22:55:40.951Z,41.00
2023-02-14T22:58:44.485Z,38.08
2023-02-14T23:01:47.027Z,36.05
2023-02-14T23:04:50.718Z,37.80
2023-02-14T23:07:52.612Z,41.70
2023-02-14T23:10:54.766Z,55.13
2023-02-14T23:13:57.201Z,42.75
2023-02-14T23:16:59.597Z,45.35
2023-02-14T23:20:01.636Z,42.60
2023-02-14T23:23:03.659Z,38.67
2023-02-14T23:26:05.656Z,37.63
2023-02-14T23:29:07.762Z,43.28
2023-02-14T23:32:10.138Z,40.13
2023-02-14T23:35:12.344Z,50.50
2023-02-14T23:38:14.407Z,49.63
2023-02-14T23:41:18.628Z,44.92
2023-02-14T23:44:26.044Z,64.63
2023-02-14T23:47:28.024Z,34.70
2023-02-14T23:50:30.296Z,36.90
2023-02-14T23:53:32.379Z,39.20
2023-02-14T23:56:35.263Z,42.55
2023-02-14T23:59:37.450Z,40.97
